createdAt,value
2022-09-28T00:01:17.650Z,96841.03
2022-09-28T00:03:46.538Z,96842.88
2022-09-28T00:06:16.343Z,96830.34
2022-09-28T00:08:43.593Z,96842.88
2022-09-28T00:11:15.056Z,96839.44
2022-09-28T00:13:43.842Z,96831.41
2022-09-28T00:16:14.584Z,96833.25
2022-09-28T00:18:42.927Z,96838.59
2022-09-28T00:21:15.268Z,96831.66
2022-09-28T00:24:12.894Z,96827.13
2022-09-28T00:26:42.047Z,96826.31
2022-09-28T00:29:16.498Z,96816.47
2022-09-28T00:31:44.366Z,96819.91
2022-09-28T00:34:12.344Z,96827.13
2022-09-28T00:36:43.910Z,96830.84
2022-09-28T00:39:13.026Z,96822.06
2022-09-28T00:41:41.305Z,96824.72
2022-09-28T00:44:27.095Z,96824.72
2022-09-28T00:47:01.413Z,96819.38
2022-09-28T00:49:52.504Z,96823.09
2022-09-28T00:52:32.418Z,96828.44
2022-09-28T00:55:03.106Z,96824.72
2022-09-28T00:57:31.136Z,96823.09
2022-09-28T01:00:00.511Z,96824.72
2022-09-28T01:02:28.061Z,96823.09
2022-09-28T01:04:58.043Z,96828.44
2022-09-28T01:07:25.482Z,96816.13
2022-09-28T01:09:54.121Z,96818.78
2022-09-28T01:12:21.728Z,96828.44
2022-09-28T01:14:51.373Z,96832.97
2022-09-28T01:17:29.744Z,96829.47
2022-09-28T01:20:34.500Z,96832.13
2022-09-28T01:23:31.260Z,96832.13
2022-09-28T01:26:26.917Z,96831.31
2022-09-28T01:29:03.206Z,96838.50
2022-09-28T01:31:34.952Z,96834.78
2022-09-28T01:34:14.473Z,96834.78
2022-09-28T01:36:50.654Z,96829.69
2022-09-28T01:39:24.157Z,96837.69
2022-09-28T01:41:56.595Z,96843.03
2022-09-28T01:44:27.234Z,96845.69
2022-09-28T01:46:54.910Z,96844.91
2022-09-28T01:49:34.729Z,96839.56
2022-09-28T01:52:09.197Z,96834.22
2022-09-28T01:54:51.045Z,96834.22
2022-09-28T01:57:34.438Z,96834.22
2022-09-28T02:00:08.821Z,96832.38
2022-09-28T02:02:56.225Z,96843.28
2022-09-28T02:05:32.832Z,96844.06
2022-09-28T02:08:20.372Z,96849.41
2022-09-28T02:10:52.901Z,96844.91
2022-09-28T02:13:32.806Z,96853.94
2022-09-28T02:16:18.924Z,96854.72
2022-09-28T02:18:47.023Z,96853.94
2022-09-28T02:21:26.851Z,96853.94
2022-09-28T02:24:09.321Z,96847.00
2022-09-28T02:26:41.833Z,96847.00
2022-09-28T02:29:09.525Z,96848.59
2022-09-28T02:31:37.131Z,96846.16
2022-09-28T02:34:04.873Z,96840.03
2022-09-28T02:36:33.929Z,96842.72
2022-09-28T02:39:02.277Z,96834.69
2022-09-28T02:42:00.425Z,96833.09
2022-09-28T02:44:27.799Z,96827.78
2022-09-28T02:47:39.809Z,96838.44
2022-09-28T02:50:33.187Z,96836.56
2022-09-28T02:53:34.910Z,96839.25
2022-09-28T02:56:17.842Z,96838.44
2022-09-28T02:59:08.214Z,96837.63
2022-09-28T03:01:49.964Z,96838.44
2022-09-28T03:04:17.232Z,96849.09
2022-09-28T03:06:55.079Z,96847.47
2022-09-28T03:09:26.377Z,96841.34
2022-09-28T03:11:58.719Z,96841.34
2022-09-28T03:14:26.236Z,96836.00
2022-09-28T03:16:53.816Z,96836.00
2022-09-28T03:19:26.321Z,96847.47
2022-09-28T03:21:55.167Z,96851.19
2022-09-28T03:24:22.753Z,96858.41
2022-09-28T03:26:50.129Z,96866.41
2022-09-28T03:29:17.738Z,96862.91
2022-09-28T03:31:45.396Z,96858.41
2022-09-28T03:34:12.822Z,96859.44
2022-09-28T03:36:40.139Z,96858.63
2022-09-28T03:39:07.660Z,96860.25
2022-09-28T03:41:34.993Z,96854.91
2022-09-28T03:44:02.560Z,96860.25
2022-09-28T03:46:30.249Z,96863.97
2022-09-28T03:48:58.981Z,96861.53
2022-09-28T03:51:26.731Z,96858.63
2022-09-28T03:53:54.304Z,96869.31
2022-09-28T03:56:21.589Z,96868.75
2022-09-28T03:58:49.007Z,96866.06
2022-09-28T04:01:18.034Z,96867.66
2022-09-28T04:03:46.871Z,96871.41
2022-09-28T04:06:14.741Z,96866.06
2022-09-28T04:08:43.243Z,96861.78
2022-09-28T04:11:10.615Z,96869.78
2022-09-28T04:13:39.092Z,96870.59
2022-09-28T04:16:07.003Z,96870.59
2022-09-28T04:18:35.228Z,96869.78
2022-09-28T04:21:08.897Z,96870.59
2022-09-28T04:23:38.727Z,96863.63
2022-09-28T04:26:08.496Z,96862.84
2022-09-28T04:28:54.496Z,96868.97
2022-09-28T04:31:23.769Z,96868.16
2022-09-28T04:33:51.843Z,96862.84
2022-09-28T04:36:20.061Z,96857.50
2022-09-28T04:38:53.327Z,96855.91
2022-09-28T04:41:24.509Z,96855.34
2022-09-28T04:43:52.561Z,96856.16
2022-09-28T04:46:20.242Z,96856.94
2022-09-28T04:48:47.680Z,96864.13
2022-09-28T04:51:15.240Z,96864.94
2022-09-28T04:53:42.601Z,96863.34
2022-09-28T04:56:15.077Z,96866.00
2022-09-28T04:58:43.615Z,96859.03
2022-09-28T05:01:13.679Z,96859.03
2022-09-28T05:03:41.931Z,96861.72
2022-09-28T05:06:13.928Z,96859.84
2022-09-28T05:08:42.481Z,96855.56
2022-09-28T05:11:11.999Z,96853.72
2022-09-28T05:13:42.625Z,96859.59
2022-09-28T05:16:10.697Z,96859.09
2022-09-28T05:18:38.665Z,96865.00
2022-09-28T05:21:13.568Z,96859.22
2022-09-28T05:23:45.713Z,96857.09
2022-09-28T05:26:14.045Z,96864.59
2022-09-28T05:28:41.778Z,96857.16
2022-09-28T05:31:09.179Z,96863.72
2022-09-28T05:33:37.191Z,96868.66
2022-09-28T05:36:04.715Z,96863.13
2022-09-28T05:38:32.046Z,96862.66
2022-09-28T05:41:03.177Z,96867.25
2022-09-28T05:43:33.137Z,96872.66
2022-09-28T05:46:00.789Z,96875.88
2022-09-28T05:48:28.343Z,96873.53
2022-09-28T05:50:55.917Z,96869.56
2022-09-28T05:53:24.529Z,96869.06
2022-09-28T05:55:52.068Z,96869.63
2022-09-28T05:58:19.516Z,96877.16
2022-09-28T06:00:47.081Z,96875.84
2022-09-28T06:03:14.491Z,96872.91
2022-09-28T06:05:41.852Z,96876.97
2022-09-28T06:08:13.114Z,96879.38
2022-09-28T06:10:40.935Z,96876.22
2022-09-28T06:13:08.896Z,96878.38
2022-09-28T06:15:37.178Z,96873.03
2022-09-28T06:18:07.187Z,96870.94
2022-09-28T06:20:37.807Z,96875.22
2022-09-28T06:23:05.367Z,96874.97
2022-09-28T06:25:32.673Z,96876.31
2022-09-28T06:28:02.537Z,96864.59
2022-09-28T06:30:32.860Z,96866.19
2022-09-28T06:33:01.846Z,96859.03
2022-09-28T06:35:31.007Z,96847.81
2022-09-28T06:37:59.926Z,96851.06
2022-09-28T06:40:28.474Z,96856.72
2022-09-28T06:43:09.995Z,96848.19
2022-09-28T06:45:38.586Z,96839.13
2022-09-28T06:48:06.897Z,96853.84
2022-09-28T06:50:39.996Z,96855.25
2022-09-28T06:53:10.562Z,96855.00
2022-09-28T06:55:42.612Z,96853.69
2022-09-28T06:58:12.781Z,96860.63
2022-09-28T07:00:41.060Z,96855.84
2022-09-28T07:03:12.598Z,96855.59
2022-09-28T07:05:45.947Z,96851.84
2022-09-28T07:08:15.002Z,96859.63
2022-09-28T07:10:48.011Z,96862.84
2022-09-28T07:13:43.897Z,96861.78
2022-09-28T07:16:04.717Z,96857.00
2022-09-28T07:18:32.057Z,96859.44
2022-09-28T07:21:00.475Z,96859.19
2022-09-28T07:23:30.444Z,96862.66
2022-09-28T07:25:58.238Z,96859.75
2022-09-28T07:28:25.793Z,96861.34
2022-09-28T07:30:56.905Z,96851.44
2022-09-28T07:33:27.056Z,96867.25
2022-09-28T07:35:55.627Z,96860.84
2022-09-28T07:38:23.443Z,96860.84
2022-09-28T07:41:09.494Z,96853.41
2022-09-28T07:43:39.572Z,96858.72
2022-09-28T07:46:13.852Z,96843.25
2022-09-28T07:48:43.220Z,96848.31
2022-09-28T07:51:10.598Z,96846.47
2022-09-28T07:53:40.725Z,96850.75
2022-09-28T07:56:09.381Z,96848.63
2022-09-28T07:58:38.538Z,96860.13
2022-09-28T08:01:10.245Z,96868.38
2022-09-28T08:03:38.909Z,96863.03
2022-09-28T08:06:09.809Z,96863.59
2022-09-28T08:08:37.836Z,96857.22
2022-09-28T08:11:07.100Z,96861.25
2022-09-28T08:13:34.541Z,96861.25
2022-09-28T08:16:02.305Z,96854.03
2022-09-28T08:18:31.439Z,96855.09
2022-09-28T08:21:17.536Z,96848.19
2022-09-28T08:23:45.082Z,96841.78
2022-09-28T08:26:15.490Z,96850.34
2022-09-28T08:28:44.851Z,96855.44
2022-09-28T08:31:12.525Z,96854.38
2022-09-28T08:33:42.069Z,96851.44
2022-09-28T08:36:10.310Z,96842.34
2022-09-28T08:38:39.284Z,96837.84
2022-09-28T08:41:24.837Z,96837.56
2022-09-28T08:44:11.962Z,96843.97
2022-09-28T08:46:45.560Z,96838.13
2022-09-28T08:49:26.273Z,96841.88
2022-09-28T08:52:03.245Z,96844.28
2022-09-28T08:54:43.106Z,96843.22
2022-09-28T08:57:19.313Z,96845.09
2022-09-28T08:59:51.446Z,96854.16
2022-09-28T09:02:33.574Z,96852.84
2022-09-28T09:05:11.079Z,96842.13
2022-09-28T09:08:03.367Z,96842.13
2022-09-28T09:10:45.888Z,96845.38
2022-09-28T09:13:50.745Z,96843.78
2022-09-28T09:16:30.553Z,96844.09
2022-09-28T09:19:15.264Z,96854.78
2022-09-28T09:21:54.548Z,96854.78
2022-09-28T09:24:27.567Z,96861.16
2022-09-28T09:27:05.587Z,96865.72
2022-09-28T09:29:54.161Z,96860.13
2022-09-28T09:32:35.602Z,96860.91
2022-09-28T09:35:12.045Z,96861.72
2022-09-28T09:38:21.980Z,96860.13
2022-09-28T09:41:22.543Z,96860.69
2022-09-28T09:44:28.007Z,96859.59
2022-09-28T09:47:07.987Z,96856.41
2022-09-28T09:49:40.734Z,96859.06
2022-09-28T09:52:14.814Z,96854.56
2022-09-28T09:54:49.358Z,96846.78
2022-09-28T09:57:27.865Z,96846.25
2022-09-28T09:59:57.040Z,96842.53
2022-09-28T10:02:29.163Z,96844.97
2022-09-28T10:05:06.640Z,96829.72
2022-09-28T10:07:57.278Z,96831.06
2022-09-28T10:10:33.102Z,96830.00
2022-09-28T10:13:02.050Z,96825.47
2022-09-28T10:15:32.283Z,96833.50
2022-09-28T10:18:06.560Z,96834.06
2022-09-28T10:20:38.577Z,96822.81
2022-09-28T10:23:12.236Z,96820.41
2022-09-28T10:25:41.065Z,96822.03
2022-09-28T10:28:19.122Z,96813.72
2022-09-28T10:30:46.811Z,96826.06
2022-09-28T10:33:31.302Z,96828.50
2022-09-28T10:36:01.732Z,96823.97
2022-09-28T10:38:30.861Z,96814.84
2022-09-28T10:41:09.498Z,96820.22
2022-09-28T10:44:06.111Z,96812.72
2022-09-28T10:46:35.334Z,96802.03
2022-09-28T10:49:09.466Z,96809.00
2022-09-28T10:51:47.506Z,96806.88
2022-09-28T10:54:20.990Z,96797.78
2022-09-28T10:56:49.824Z,96794.06
2022-09-28T10:59:29.490Z,96784.97
2022-09-28T11:02:03.836Z,96786.59
2022-09-28T11:04:40.169Z,96786.59
2022-09-28T11:07:19.528Z,96776.69
2022-09-28T11:09:49.527Z,96775.88
2022-09-28T11:12:20.545Z,96773.22
2022-09-28T11:14:55.578Z,96767.03
2022-09-28T11:17:27.616Z,96767.88
2022-09-28T11:20:00.098Z,96763.06
2022-09-28T11:22:33.688Z,96766.78
2022-09-28T11:25:16.566Z,96756.09
2022-09-28T11:27:53.077Z,96759.31
2022-09-28T11:30:48.266Z,96753.94
2022-09-28T11:33:24.540Z,96743.25
2022-09-28T11:36:13.222Z,96745.13
2022-09-28T11:38:57.904Z,96750.72
2022-09-28T11:41:53.117Z,96747.81
2022-09-28T11:44:48.285Z,96756.63
2022-09-28T11:47:29.618Z,96747.81
2022-09-28T11:50:00.037Z,96750.19
2022-09-28T11:52:47.465Z,96744.84
2022-09-28T11:55:21.145Z,96736.81
2022-09-28T11:58:01.361Z,96732.03
2022-09-28T12:00:35.249Z,96719.19
2022-09-28T12:03:15.762Z,96720.03
2022-09-28T12:05:55.932Z,96727.75
2022-09-28T12:08:33.445Z,96724.28
2022-09-28T12:11:05.925Z,96719.19
2022-09-28T12:13:38.932Z,96720.28
2022-09-28T12:16:46.851Z,96719.47
2022-09-28T12:19:34.867Z,96726.66
2022-09-28T12:22:18.592Z,96724.00
2022-09-28T12:24:49.395Z,96730.44
2022-09-28T12:27:55.789Z,96729.63
2022-09-28T12:30:27.408Z,96725.06
2022-09-28T12:33:15.327Z,96725.88
2022-09-28T12:36:14.472Z,96721.31
2022-09-28T12:39:40.844Z,96719.19
2022-09-28T12:42:29.057Z,96716.00
2022-09-28T12:45:11.755Z,96714.94
2022-09-28T12:48:11.781Z,96711.72
2022-09-28T12:51:20.533Z,96706.09
2022-09-28T12:53:57.050Z,96704.22
2022-09-28T12:56:52.232Z,96699.69
2022-09-28T12:59:26.384Z,96704.22
2022-09-28T13:02:31.704Z,96695.16
2022-09-28T13:05:44.258Z,96704.22
2022-09-28T13:08:46.130Z,96697.28
2022-09-28T13:11:31.864Z,96703.44
2022-09-28T13:14:45.357Z,96697.28
2022-09-28T13:18:02.396Z,96698.34
2022-09-28T13:20:57.687Z,96691.94
2022-09-28T13:23:42.499Z,96686.84
2022-09-28T13:26:24.171Z,96688.72
2022-09-28T13:28:54.744Z,96683.38
2022-09-28T13:31:30.891Z,96689.75
2022-09-28T13:34:03.433Z,96697.78
2022-09-28T13:36:30.995Z,96692.44
2022-09-28T13:39:02.383Z,96696.19
2022-09-28T13:41:37.894Z,96697.25
2022-09-28T13:44:16.520Z,96699.91
2022-09-28T13:47:21.986Z,96689.22
2022-09-28T13:50:12.071Z,96692.97
2022-09-28T13:53:03.892Z,96682.28
2022-09-28T13:55:47.362Z,96687.63
2022-09-28T13:58:20.511Z,96680.66
2022-09-28T14:01:01.471Z,96676.38
2022-09-28T14:04:09.584Z,96665.69
2022-09-28T14:06:44.480Z,96667.56
2022-09-28T14:09:18.405Z,96660.31
2022-09-28T14:12:00.870Z,96656.06
2022-09-28T14:14:48.827Z,96652.84
2022-09-28T14:17:19.402Z,96655.50
2022-09-28T14:20:02.085Z,96652.84
2022-09-28T14:22:55.699Z,96643.19
2022-09-28T14:25:26.366Z,96645.88
2022-09-28T14:28:24.833Z,96646.94
2022-09-28T14:30:55.908Z,96646.13
2022-09-28T14:33:26.298Z,96639.97
2022-09-28T14:35:58.263Z,96639.97
2022-09-28T14:39:07.142Z,96636.50
2022-09-28T14:41:43.918Z,96631.94
2022-09-28T14:44:14.395Z,96635.69
2022-09-28T14:46:48.441Z,96637.28
2022-09-28T14:49:23.234Z,96630.34
2022-09-28T14:51:54.033Z,96638.38
2022-09-28T14:54:38.877Z,96625.78
2022-09-28T14:57:16.041Z,96628.72
2022-09-28T14:59:46.192Z,96623.38
2022-09-28T15:02:24.721Z,96621.50
2022-09-28T15:05:02.399Z,96621.78
2022-09-28T15:07:43.348Z,96625.78
2022-09-28T15:10:33.538Z,96621.25
2022-09-28T15:13:04.113Z,96617.22
2022-09-28T15:15:40.680Z,96619.66
2022-09-28T15:18:30.175Z,96621.53
2022-09-28T15:20:58.006Z,96622.88
2022-09-28T15:23:38.808Z,96626.34
2022-09-28T15:26:20.646Z,96627.16
2022-09-28T15:28:47.981Z,96625.84
2022-09-28T15:31:26.973Z,96632.00
2022-09-28T15:34:13.503Z,96636.53
2022-09-28T15:36:42.944Z,96627.44
2022-09-28T15:39:31.480Z,96629.84
2022-09-28T15:42:00.409Z,96622.88
2022-09-28T15:44:44.541Z,96632.53
2022-09-28T15:47:18.327Z,96633.31
2022-09-28T15:50:04.787Z,96640.56
2022-09-28T15:52:42.831Z,96639.47
2022-09-28T15:55:24.883Z,96655.53
2022-09-28T15:58:06.410Z,96662.50
2022-09-28T16:00:33.781Z,96669.72
2022-09-28T16:03:20.745Z,96686.56
2022-09-28T16:05:50.885Z,96682.81
2022-09-28T16:08:22.048Z,96688.97
2022-09-28T16:11:04.435Z,96656.88
2022-09-28T16:13:32.333Z,96670.53
2022-09-28T16:16:00.659Z,96670.53
2022-09-28T16:18:30.463Z,96677.47
2022-09-28T16:21:37.510Z,96671.31
2022-09-28T16:24:05.551Z,96681.78
2022-09-28T16:26:38.856Z,96687.13
2022-09-28T16:29:23.969Z,96690.84
2022-09-28T16:31:53.159Z,96682.81
2022-09-28T16:34:25.093Z,96686.28
2022-09-28T16:36:53.050Z,96682.81
2022-09-28T16:39:20.860Z,96679.09
2022-09-28T16:41:53.949Z,96684.44
2022-09-28T16:44:25.777Z,96691.41
2022-09-28T16:46:55.825Z,96683.38
2022-09-28T16:49:26.261Z,96676.44
2022-09-28T16:51:54.098Z,96674.28
2022-09-28T16:54:42.371Z,96655.81
2022-09-28T16:57:14.654Z,96660.09
2022-09-28T16:59:50.034Z,96650.22
2022-09-28T17:02:45.073Z,96655.56
2022-09-28T17:05:07.995Z,96666.25
2022-09-28T17:07:36.022Z,96671.63
2022-09-28T17:10:09.343Z,96675.34
2022-09-28T17:12:37.633Z,96682.31
2022-09-28T17:15:05.313Z,96678.56
2022-09-28T17:17:32.638Z,96688.47
2022-09-28T17:20:01.435Z,96690.06
2022-09-28T17:22:29.486Z,96696.25
2022-09-28T17:24:56.824Z,96697.59
2022-09-28T17:27:26.842Z,96699.72
2022-09-28T17:29:54.599Z,96698.38
2022-09-28T17:32:22.158Z,96700.81
2022-09-28T17:35:00.954Z,96700.56
2022-09-28T17:37:37.503Z,96702.69
2022-09-28T17:40:22.366Z,96700.03
2022-09-28T17:42:50.046Z,96697.88
2022-09-28T17:45:18.167Z,96697.88
2022-09-28T17:47:45.641Z,96711.00
2022-09-28T17:50:23.607Z,96702.72
2022-09-28T17:52:52.564Z,96723.06
2022-09-28T17:55:28.647Z,96721.47
2022-09-28T17:57:56.457Z,96725.44
2022-09-28T18:00:29.373Z,96727.31
2022-09-28T18:02:58.467Z,96725.72
2022-09-28T18:05:29.071Z,96726.78
2022-09-28T18:07:58.769Z,96750.88
2022-09-28T18:10:27.509Z,96750.88
2022-09-28T18:12:55.425Z,96757.03
2022-09-28T18:15:23.347Z,96747.41
2022-09-28T18:17:51.581Z,96744.72
2022-09-28T18:20:19.109Z,96746.59
2022-09-28T18:22:46.543Z,96751.94
2022-09-28T18:25:14.047Z,96752.19
2022-09-28T18:27:41.545Z,96747.66
2022-09-28T18:30:09.433Z,96754.63
2022-09-28T18:32:37.254Z,96761.84
2022-09-28T18:35:06.486Z,96768.00
2022-09-28T18:37:39.903Z,96780.31
2022-09-28T18:40:09.490Z,96766.94
2022-09-28T18:42:38.861Z,96765.34
2022-09-28T18:45:08.430Z,96756.22
2022-09-28T18:47:36.341Z,96765.34
2022-09-28T18:50:04.536Z,96762.66
2022-09-28T18:52:35.989Z,96765.34
2022-09-28T18:55:05.869Z,96770.69
2022-09-28T18:57:33.935Z,96781.38
2022-09-28T19:00:04.202Z,96781.38
2022-09-28T19:02:32.747Z,96786.75
2022-09-28T19:05:00.266Z,96779.75
2022-09-28T19:07:27.840Z,96786.75
2022-09-28T19:09:55.809Z,96792.09
2022-09-28T19:12:24.821Z,96792.09
2022-09-28T19:14:52.993Z,96786.75
2022-09-28T19:17:20.721Z,96792.91
2022-09-28T19:19:48.078Z,96790.47
2022-09-28T19:22:15.437Z,96790.47
2022-09-28T19:24:42.941Z,96793.16
2022-09-28T19:27:10.329Z,96783.25
2022-09-28T19:29:37.685Z,96782.44
2022-09-28T19:32:06.155Z,96785.13
2022-09-28T19:34:33.562Z,96794.22
2022-09-28T19:37:03.924Z,96796.91
2022-09-28T19:39:32.711Z,96794.22
2022-09-28T19:42:01.291Z,96804.94
2022-09-28T19:44:32.332Z,96799.56
2022-09-28T19:47:07.146Z,96803.31
2022-09-28T19:49:40.357Z,96811.09
2022-09-28T19:52:15.827Z,96803.31
2022-09-28T19:54:46.087Z,96809.47
2022-09-28T19:57:15.863Z,96818.31
2022-09-28T19:59:44.266Z,96822.03
2022-09-28T20:02:11.901Z,96823.66
2022-09-28T20:04:39.530Z,96811.63
2022-09-28T20:07:07.149Z,96820.19
2022-09-28T20:09:34.550Z,96825.00
2022-09-28T20:12:02.123Z,96830.09
2022-09-28T20:14:34.275Z,96822.88
2022-09-28T20:17:05.673Z,96819.94
2022-09-28T20:24:07.207Z,96839.25
2022-09-28T20:49:10.855Z,96851.00
2022-09-28T20:52:21.155Z,96852.63
2022-09-28T20:54:48.545Z,96863.34
2022-09-28T20:57:18.687Z,96872.41
2022-09-28T20:59:50.991Z,96873.25
2022-09-28T21:02:22.436Z,96884.75
2022-09-28T21:04:49.977Z,96873.25
2022-09-28T21:07:17.442Z,96851.84
2022-09-28T21:09:44.986Z,96868.69
2022-09-28T21:12:12.713Z,96880.19
2022-09-28T21:14:39.982Z,96881.00
2022-09-28T21:17:07.545Z,96901.38
2022-09-28T21:19:34.866Z,96889.03
2022-09-28T21:22:02.401Z,96905.09
2022-09-28T21:24:29.941Z,96913.13
2022-09-28T21:26:58.406Z,96905.09
2022-09-28T21:29:26.172Z,96904.03
2022-09-28T21:31:54.483Z,96898.69
2022-09-28T21:34:22.466Z,96896.25
2022-09-28T21:36:53.138Z,96900.81
2022-09-28T21:39:20.835Z,96904.53
2022-09-28T21:41:49.069Z,96896.00
2022-09-28T21:44:16.446Z,96890.63
2022-09-28T21:46:44.310Z,96896.78
2022-09-28T21:49:12.625Z,96917.41
2022-09-28T21:51:40.054Z,96913.91
2022-09-28T21:54:08.179Z,96921.94
2022-09-28T21:56:35.770Z,96927.28
2022-09-28T21:59:03.106Z,96929.16
2022-09-28T22:01:31.725Z,96927.56
2022-09-28T22:03:59.301Z,96934.78
2022-09-28T22:06:28.124Z,96939.31
2022-09-28T22:08:56.367Z,96927.00
2022-09-28T22:11:26.838Z,96920.03
2022-09-28T22:13:59.274Z,96920.03
2022-09-28T22:16:30.288Z,96925.38
2022-09-28T22:18:58.811Z,96928.88
2022-09-28T22:21:34.943Z,96939.84
2022-09-28T22:24:05.137Z,96943.31
2022-09-28T22:26:35.486Z,96939.84
2022-09-28T22:29:06.069Z,96952.41
2022-09-28T22:31:37.298Z,96946.25
2022-09-28T22:34:05.650Z,96947.31
2022-09-28T22:36:33.814Z,96948.13
2022-09-28T22:39:02.308Z,96956.41
2022-09-28T22:41:29.958Z,96959.06
2022-09-28T22:43:57.759Z,96956.41
2022-09-28T22:46:27.389Z,96951.03
2022-09-28T22:48:57.341Z,96961.75
2022-09-28T22:51:26.922Z,96974.09
2022-09-28T22:53:54.698Z,96970.06
2022-09-28T22:56:22.260Z,96972.47
2022-09-28T22:58:49.676Z,96970.84
2022-09-28T23:01:26.108Z,96968.19
2022-09-28T23:03:55.066Z,96976.22
2022-09-28T23:06:26.458Z,96976.22
2022-09-28T23:08:53.947Z,96970.84
2022-09-28T23:11:21.297Z,96979.94
2022-09-28T23:13:53.668Z,96984.50
2022-09-28T23:16:24.740Z,96986.13
2022-09-28T23:18:54.324Z,96991.72
2022-09-28T23:21:24.380Z,96989.03
2022-09-28T23:23:57.510Z,96978.34
2022-09-28T23:26:29.173Z,96974.03
2022-09-28T23:28:57.337Z,96972.19
2022-09-28T23:31:27.804Z,96972.44
2022-09-28T23:34:03.572Z,96971.34
2022-09-28T23:36:32.064Z,96966.00
2022-09-28T23:38:59.796Z,96964.41
2022-09-28T23:41:27.879Z,96964.41
2022-09-28T23:43:55.340Z,96965.44
2022-09-28T23:46:23.273Z,96973.47
2022-09-28T23:48:50.699Z,96978.84
2022-09-28T23:51:18.653Z,96985.00
2022-09-28T23:53:46.329Z,96982.59
2022-09-28T23:56:14.564Z,96992.22
2022-09-28T23:58:42.668Z,96995.97
